Aegean Tiffany — SVAE9 — position and weather

sailwx.info

Track history (hours):
 
Tides and Currents Weather Stations Pressure Air Temp Water Temp Dewpoint Dewpoint Depression Visibility Wind Speed Wind Dir Waves Ship Positions

Aegean Tiffany

Last reported at 2015-Apr-21 21:24 UTC. Time now 2015-Apr-27 22:11 UTC.
Position N 37°54' E 023°05'.

Length 80 m.

Type: Tanker. MMSI: 240870000.

Date/timePositionNaut miles runAvg speedWind from/ knotsBaromVisibWave heightAir tempDewpointWater temp
2015-Apr-21 21:24N 37°54' E 023°05'7 7.5
2015-Apr-21 20:30N 37°55' E 023°13'7 7.6
2015-Apr-21 19:34N 37°57' E 023°22'6 6.0
2015-Apr-21 18:32N 38°01' E 023°28'2 0.2
2015-Apr-21 07:33N 38°02' E 023°31'0 0.0
2015-Apr-21 06:34N 38°02' E 023°31'0 0.0
2015-Apr-21 05:34N 38°02' E 023°31'0 0.0
2015-Apr-21 04:34N 38°02' E 023°31'0 0.0
2015-Apr-21 03:33N 38°02' E 023°31'0 0.0
2015-Apr-21 02:33N 38°02' E 023°31'0 0.0
2015-Apr-21 01:33N 38°02' E 023°31'0 0.0
2015-Apr-21 00:33N 38°02' E 023°31'0 0.0
2015-Apr-20 23:34N 38°02' E 023°31'0 0.0
2015-Apr-20 22:33N 38°02' E 023°31'0 0.0
2015-Apr-20 21:33N 38°02' E 023°31'0 0.0
2015-Apr-20 20:33N 38°02' E 023°31'0 0.0
2015-Apr-20 19:33N 38°02' E 023°31'0 0.1
2015-Apr-20 18:33N 38°02' E 023°31'1 1.0
2015-Apr-20 17:33N 38°02' E 023°32'0 0.0
2015-Apr-19 00:24N 38°02' E 023°32'6 6.5
2015-Apr-18 23:33N 37°59' E 023°25'6 5.7
2015-Apr-18 22:33N 37°56' E 023°19'8 7.5
2015-Apr-18 21:33N 37°55' E 023°10'35 6.9
2015-Apr-18 16:29N 38°10' E 022°30'  
2015-Apr-13 21:29N 37°54' E 023°04'7 7.2
2015-Apr-13 20:32N 37°55' E 023°13'7 7.6
2015-Apr-13 19:33N 37°57' E 023°22'6 5.9
2015-Apr-13 18:31N 38°01' E 023°28'3 0.4
2015-Apr-13 09:28N 38°02' E 023°32'3 0.7
2015-Apr-13 05:33N 38°02' E 023°36'0 0.0
2015-Apr-13 04:32N 38°02' E 023°36'0 0.0
2015-Apr-13 03:22N 38°02' E 023°36'0 0.0
2015-Apr-13 02:33N 38°02' E 023°36'0 0.0
2015-Apr-13 01:33N 38°02' E 023°36'0 0.0
2015-Apr-13 00:33N 38°02' E 023°36'0 0.0
2015-Apr-12 23:33N 38°02' E 023°36'0 0.0
2015-Apr-12 22:33N 38°02' E 023°36'0 0.0
2015-Apr-12 21:32N 38°02' E 023°36'0 0.1
2015-Apr-12 20:33N 38°02' E 023°35'3 2.8
2015-Apr-12 19:33N 38°02' E 023°32'  
Track history (hours):
 
Tides and Currents Weather Stations Pressure Air Temp Water Temp Dewpoint Dewpoint Depression Visibility Wind Speed Wind Dir Waves Ship Positions

Aegean Tiffany

Last reported at 2015-Apr-21 21:24 UTC. Time now 2015-Apr-27 22:11 UTC.
Position N 37°54' E 023°05'.

Length 80 m.

Type: Tanker. MMSI: 240870000.

Date/timePositionNaut miles runAvg speedWind from/ knotsBaromVisibWave heightAir tempDewpointWater temp
2015-Apr-21 21:24N 37°54' E 023°05'7 7.5
2015-Apr-21 20:30N 37°55' E 023°13'7 7.6
2015-Apr-21 19:34N 37°57' E 023°22'6 6.0
2015-Apr-21 18:32N 38°01' E 023°28'2 0.2
2015-Apr-21 07:33N 38°02' E 023°31'0 0.0
2015-Apr-21 06:34N 38°02' E 023°31'0 0.0
2015-Apr-21 05:34N 38°02' E 023°31'0 0.0
2015-Apr-21 04:34N 38°02' E 023°31'0 0.0
2015-Apr-21 03:33N 38°02' E 023°31'0 0.0
2015-Apr-21 02:33N 38°02' E 023°31'0 0.0
2015-Apr-21 01:33N 38°02' E 023°31'0 0.0
2015-Apr-21 00:33N 38°02' E 023°31'0 0.0
2015-Apr-20 23:34N 38°02' E 023°31'0 0.0
2015-Apr-20 22:33N 38°02' E 023°31'0 0.0
2015-Apr-20 21:33N 38°02' E 023°31'0 0.0
2015-Apr-20 20:33N 38°02' E 023°31'0 0.0
2015-Apr-20 19:33N 38°02' E 023°31'0 0.1
2015-Apr-20 18:33N 38°02' E 023°31'1 1.0
2015-Apr-20 17:33N 38°02' E 023°32'0 0.0
2015-Apr-19 00:24N 38°02' E 023°32'6 6.5
2015-Apr-18 23:33N 37°59' E 023°25'6 5.7
2015-Apr-18 22:33N 37°56' E 023°19'8 7.5
2015-Apr-18 21:33N 37°55' E 023°10'35 6.9
2015-Apr-18 16:29N 38°10' E 022°30'  
2015-Apr-13 21:29N 37°54' E 023°04'7 7.2
2015-Apr-13 20:32N 37°55' E 023°13'7 7.6
2015-Apr-13 19:33N 37°57' E 023°22'6 5.9
2015-Apr-13 18:31N 38°01' E 023°28'3 0.4
2015-Apr-13 09:28N 38°02' E 023°32'3 0.7
2015-Apr-13 05:33N 38°02' E 023°36'0 0.0
2015-Apr-13 04:32N 38°02' E 023°36'0 0.0
2015-Apr-13 03:22N 38°02' E 023°36'0 0.0
2015-Apr-13 02:33N 38°02' E 023°36'0 0.0
2015-Apr-13 01:33N 38°02' E 023°36'0 0.0
2015-Apr-13 00:33N 38°02' E 023°36'0 0.0
2015-Apr-12 23:33N 38°02' E 023°36'0 0.0
2015-Apr-12 22:33N 38°02' E 023°36'0 0.0
2015-Apr-12 21:32N 38°02' E 023°36'0 0.1
2015-Apr-12 20:33N 38°02' E 023°35'3 2.8
2015-Apr-12 19:33N 38°02' E 023°32'  

Dump ship's entire track history